sensor_id;sensor_type;location;lat;lon;timestamp;temperature;humidity
25536;DHT22;13431;51.352;6.412;2022-08-04T00:00:17;21.30;99.90
25536;DHT22;13431;51.352;6.412;2022-08-04T00:03:01;21.20;99.90
25536;DHT22;13431;51.352;6.412;2022-08-04T00:11:03;21.20;99.90
25536;DHT22;13431;51.352;6.412;2022-08-04T00:13:43;21.20;99.90
25536;DHT22;13431;51.352;6.412;2022-08-04T00:16:32;21.10;99.90
25536;DHT22;13431;51.352;6.412;2022-08-04T00:21:55;21.00;99.90
25536;DHT22;13431;51.352;6.412;2022-08-04T00:24:29;21.00;99.90
25536;DHT22;13431;51.352;6.412;2022-08-04T00:26:56;21.00;99.90
25536;DHT22;13431;51.352;6.412;2022-08-04T00:29:26;20.90;99.90
25536;DHT22;13431;51.352;6.412;2022-08-04T00:31:56;20.90;99.90
25536;DHT22;13431;51.352;6.412;2022-08-04T00:34:26;20.80;99.90
25536;DHT22;13431;51.352;6.412;2022-08-04T00:36:55;20.70;99.90
25536;DHT22;13431;51.352;6.412;2022-08-04T00:39:24;20.60;99.90
25536;DHT22;13431;51.352;6.412;2022-08-04T00:44:48;20.40;99.90
25536;DHT22;13431;51.352;6.412;2022-08-04T01:07:14;20.20;99.90
25536;DHT22;13431;51.352;6.412;2022-08-04T01:24:18;20.00;99.90
25536;DHT22;13431;51.352;6.412;2022-08-04T01:27:10;19.80;99.90
25536;DHT22;13431;51.352;6.412;2022-08-04T01:29:55;19.80;99.90
25536;DHT22;13431;51.352;6.412;2022-08-04T01:32:36;19.70;99.90
25536;DHT22;13431;51.352;6.412;2022-08-04T01:35:15;19.60;99.90
25536;DHT22;13431;51.352;6.412;2022-08-04T01:37:57;19.50;99.90
25536;DHT22;13431;51.352;6.412;2022-08-04T01:40:26;19.50;99.90
25536;DHT22;13431;51.352;6.412;2022-08-04T01:42:54;19.50;99.90
25536;DHT22;13431;51.352;6.412;2022-08-04T01:45:24;19.50;99.90
25536;DHT22;13431;51.352;6.412;2022-08-04T01:47:55;19.40;99.90
25536;DHT22;13431;51.352;6.412;2022-08-04T01:50:23;19.50;99.90
25536;DHT22;13431;51.352;6.412;2022-08-04T01:52:54;19.50;99.90
25536;DHT22;13431;51.352;6.412;2022-08-04T01:55:22;19.40;99.90
25536;DHT22;13431;51.352;6.412;2022-08-04T01:58:11;19.50;99.90
25536;DHT22;13431;51.352;6.412;2022-08-04T02:00:44;19.50;99.90
25536;DHT22;13431;51.352;6.412;2022-08-04T02:03:14;19.50;99.90
25536;DHT22;13431;51.352;6.412;2022-08-04T02:05:46;19.40;99.90
25536;DHT22;13431;51.352;6.412;2022-08-04T02:11:09;19.50;99.90
25536;DHT22;13431;51.352;6.412;2022-08-04T02:14:01;19.50;99.90
25536;DHT22;13431;51.352;6.412;2022-08-04T02:16:39;19.40;99.90
25536;DHT22;13431;51.352;6.412;2022-08-04T02:21:41;19.40;99.90
25536;DHT22;13431;51.352;6.412;2022-08-04T02:24:14;19.40;99.90
25536;DHT22;13431;51.352;6.412;2022-08-04T02:26:46;19.40;99.90
25536;DHT22;13431;51.352;6.412;2022-08-04T02:29:34;19.50;99.90
25536;DHT22;13431;51.352;6.412;2022-08-04T02:32:19;19.50;99.90
25536;DHT22;13431;51.352;6.412;2022-08-04T02:34:56;19.50;99.90
25536;DHT22;13431;51.352;6.412;2022-08-04T02:37:26;19.40;99.90
25536;DHT22;13431;51.352;6.412;2022-08-04T02:39:58;19.40;99.90
25536;DHT22;13431;51.352;6.412;2022-08-04T02:42:28;19.40;99.90
25536;DHT22;13431;51.352;6.412;2022-08-04T02:44:58;19.30;99.90
25536;DHT22;13431;51.352;6.412;2022-08-04T02:47:27;19.30;99.90
25536;DHT22;13431;51.352;6.412;2022-08-04T02:50:17;19.20;99.90
25536;DHT22;13431;51.352;6.412;2022-08-04T02:52:57;19.30;99.90
25536;DHT22;13431;51.352;6.412;2022-08-04T02:55:28;19.20;99.90
25536;DHT22;13431;51.352;6.412;2022-08-04T02:57:57;19.10;99.90
25536;DHT22;13431;51.352;6.412;2022-08-04T03:00:26;19.00;99.90
25536;DHT22;13431;51.352;6.412;2022-08-04T03:03:23;18.90;99.90
25536;DHT22;13431;51.352;6.412;2022-08-04T03:06:11;18.90;99.90
25536;DHT22;13431;51.352;6.412;2022-08-04T03:29:53;18.70;99.90
25536;DHT22;13431;51.352;6.412;2022-08-04T03:32:54;18.60;99.90
25536;DHT22;13431;51.352;6.412;2022-08-04T03:46:52;18.60;99.90
25536;DHT22;13431;51.352;6.412;2022-08-04T03:55:51;18.90;99.90
25536;DHT22;13431;51.352;6.412;2022-08-04T04:04:45;19.10;99.90
25536;DHT22;13431;51.352;6.412;2022-08-04T04:07:35;19.20;99.90
25536;DHT22;13431;51.352;6.412;2022-08-04T04:31:28;19.70;99.90
25536;DHT22;13431;51.352;6.412;2022-08-04T04:37:41;20.40;99.90
25536;DHT22;13431;51.352;6.412;2022-08-04T04:39:53;21.00;99.90
25536;DHT22;13431;51.352;6.412;2022-08-04T04:45:35;22.10;99.90
25536;DHT22;13431;51.352;6.412;2022-08-04T04:48:35;22.30;99.90
25536;DHT22;13431;51.352;6.412;2022-08-04T04:51:22;22.70;99.90
25536;DHT22;13431;51.352;6.412;2022-08-04T04:56:46;23.30;99.90
25536;DHT22;13431;51.352;6.412;2022-08-04T04:59:19;23.10;99.90
25536;DHT22;13431;51.352;6.412;2022-08-04T05:07:44;22.60;99.90
25536;DHT22;13431;51.352;6.412;2022-08-04T05:16:16;22.50;99.90
25536;DHT22;13431;51.352;6.412;2022-08-04T05:18:51;22.50;99.90
25536;DHT22;13431;51.352;6.412;2022-08-04T05:21:33;22.60;99.90
25536;DHT22;13431;51.352;6.412;2022-08-04T05:24:07;22.80;99.90
25536;DHT22;13431;51.352;6.412;2022-08-04T05:27:01;22.80;99.90
25536;DHT22;13431;51.352;6.412;2022-08-04T05:29:36;22.90;99.90
25536;DHT22;13431;51.352;6.412;2022-08-04T05:32:13;22.90;99.90
25536;DHT22;13431;51.352;6.412;2022-08-04T05:34:44;22.90;99.90
25536;DHT22;13431;51.352;6.412;2022-08-04T05:37:17;22.90;99.90
25536;DHT22;13431;51.352;6.412;2022-08-04T05:39:55;22.90;99.90
25536;DHT22;13431;51.352;6.412;2022-08-04T05:42:24;22.80;99.90
25536;DHT22;13431;51.352;6.412;2022-08-04T05:44:53;22.80;99.90
25536;DHT22;13431;51.352;6.412;2022-08-04T05:47:23;23.10;99.90
25536;DHT22;13431;51.352;6.412;2022-08-04T05:49:52;24.60;99.90
25536;DHT22;13431;51.352;6.412;2022-08-04T05:52:29;26.70;99.90
25536;DHT22;13431;51.352;6.412;2022-08-04T05:54:58;28.40;99.90
25536;DHT22;13431;51.352;6.412;2022-08-04T05:57:27;29.20;99.90
25536;DHT22;13431;51.352;6.412;2022-08-04T05:59:58;30.20;99.90
25536;DHT22;13431;51.352;6.412;2022-08-04T06:02:27;31.50;99.90
25536;DHT22;13431;51.352;6.412;2022-08-04T06:04:56;32.70;99.90
25536;DHT22;13431;51.352;6.412;2022-08-04T06:07:25;33.50;99.90
25536;DHT22;13431;51.352;6.412;2022-08-04T06:09:53;34.10;99.90
25536;DHT22;13431;51.352;6.412;2022-08-04T06:12:35;33.30;99.90
25536;DHT22;13431;51.352;6.412;2022-08-04T06:15:05;33.30;99.90
25536;DHT22;13431;51.352;6.412;2022-08-04T06:17:39;33.70;99.90
25536;DHT22;13431;51.352;6.412;2022-08-04T06:20:30;34.10;99.50
25536;DHT22;13431;51.352;6.412;2022-08-04T06:23:05;34.30;98.10
25536;DHT22;13431;51.352;6.412;2022-08-04T06:25:43;33.50;99.00
25536;DHT22;13431;51.352;6.412;2022-08-04T06:28:13;32.00;99.90
25536;DHT22;13431;51.352;6.412;2022-08-04T06:30:42;32.40;99.90
25536;DHT22;13431;51.352;6.412;2022-08-04T06:33:14;33.80;99.00
25536;DHT22;13431;51.352;6.412;2022-08-04T06:35:54;35.20;97.10
25536;DHT22;13431;51.352;6.412;2022-08-04T06:38:24;36.20;95.70
25536;DHT22;13431;51.352;6.412;2022-08-04T06:40:54;36.60;94.40
25536;DHT22;13431;51.352;6.412;2022-08-04T06:43:25;37.50;93.40
25536;DHT22;13431;51.352;6.412;2022-08-04T06:45:56;37.90;91.90
25536;DHT22;13431;51.352;6.412;2022-08-04T06:48:26;37.90;90.70
25536;DHT22;13431;51.352;6.412;2022-08-04T06:50:59;38.20;90.20
25536;DHT22;13431;51.352;6.412;2022-08-04T06:53:48;39.20;87.60
25536;DHT22;13431;51.352;6.412;2022-08-04T06:56:16;39.70;85.10
25536;DHT22;13431;51.352;6.412;2022-08-04T06:58:46;39.20;83.70
25536;DHT22;13431;51.352;6.412;2022-08-04T07:01:15;36.70;88.30
25536;DHT22;13431;51.352;6.412;2022-08-04T07:03:44;37.70;87.70
25536;DHT22;13431;51.352;6.412;2022-08-04T07:06:17;39.00;84.40
25536;DHT22;13431;51.352;6.412;2022-08-04T07:08:46;39.00;81.40
25536;DHT22;13431;51.352;6.412;2022-08-04T07:11:14;39.80;82.10
25536;DHT22;13431;51.352;6.412;2022-08-04T07:13:44;40.50;78.60
25536;DHT22;13431;51.352;6.412;2022-08-04T07:16:13;41.30;77.10
25536;DHT22;13431;51.352;6.412;2022-08-04T07:18:41;42.10;74.20
25536;DHT22;13431;51.352;6.412;2022-08-04T07:21:10;42.60;70.50
25536;DHT22;13431;51.352;6.412;2022-08-04T07:23:37;42.10;71.10
25536;DHT22;13431;51.352;6.412;2022-08-04T07:26:05;42.30;70.20
25536;DHT22;13431;51.352;6.412;2022-08-04T07:28:40;41.80;68.40
25536;DHT22;13431;51.352;6.412;2022-08-04T07:31:14;41.80;68.70
25536;DHT22;13431;51.352;6.412;2022-08-04T07:34:02;42.60;66.00
25536;DHT22;13431;51.352;6.412;2022-08-04T07:36:50;43.60;63.40
25536;DHT22;13431;51.352;6.412;2022-08-04T07:39:21;44.20;60.00
25536;DHT22;13431;51.352;6.412;2022-08-04T07:41:59;44.00;59.70
25536;DHT22;13431;51.352;6.412;2022-08-04T07:44:32;45.20;59.10
25536;DHT22;13431;51.352;6.412;2022-08-04T07:47:05;46.00;56.80
25536;DHT22;13431;51.352;6.412;2022-08-04T07:49:34;45.90;55.30
25536;DHT22;13431;51.352;6.412;2022-08-04T07:52:22;46.30;55.00
25536;DHT22;13431;51.352;6.412;2022-08-04T07:54:50;46.80;54.30
25536;DHT22;13431;51.352;6.412;2022-08-04T07:57:18;46.60;52.60
25536;DHT22;13431;51.352;6.412;2022-08-04T08:00:07;46.80;52.70
25536;DHT22;13431;51.352;6.412;2022-08-04T08:02:39;47.50;51.80
25536;DHT22;13431;51.352;6.412;2022-08-04T08:05:13;47.70;50.40
25536;DHT22;13431;51.352;6.412;2022-08-04T08:07:47;47.60;49.30
25536;DHT22;13431;51.352;6.412;2022-08-04T08:10:17;47.70;49.20
25536;DHT22;13431;51.352;6.412;2022-08-04T08:12:44;47.10;50.40
25536;DHT22;13431;51.352;6.412;2022-08-04T08:15:18;47.70;50.00
25536;DHT22;13431;51.352;6.412;2022-08-04T08:17:46;46.90;49.30
25536;DHT22;13431;51.352;6.412;2022-08-04T08:20:28;46.60;50.10
25536;DHT22;13431;51.352;6.412;2022-08-04T08:22:57;46.50;49.50
25536;DHT22;13431;51.352;6.412;2022-08-04T08:25:25;46.70;49.50
25536;DHT22;13431;51.352;6.412;2022-08-04T08:27:53;45.30;49.10
25536;DHT22;13431;51.352;6.412;2022-08-04T08:30:24;41.80;53.80
25536;DHT22;13431;51.352;6.412;2022-08-04T08:33:00;39.70;58.90
25536;DHT22;13431;51.352;6.412;2022-08-04T08:35:37;38.40;61.20
25536;DHT22;13431;51.352;6.412;2022-08-04T08:38:43;38.50;62.20
25536;DHT22;13431;51.352;6.412;2022-08-04T08:58:41;46.80;47.30
25536;DHT22;13431;51.352;6.412;2022-08-04T09:01:39;44.10;48.90
25536;DHT22;13431;51.352;6.412;2022-08-04T09:07:05;44.80;48.70
25536;DHT22;13431;51.352;6.412;2022-08-04T09:17:57;44.20;50.90
25536;DHT22;13431;51.352;6.412;2022-08-04T09:25:51;41.70;54.50
25536;DHT22;13431;51.352;6.412;2022-08-04T09:28:24;42.00;54.80
25536;DHT22;13431;51.352;6.412;2022-08-04T09:31:18;42.80;52.90
25536;DHT22;13431;51.352;6.412;2022-08-04T09:33:54;45.60;51.70
25536;DHT22;13431;51.352;6.412;2022-08-04T09:36:38;47.20;47.30
25536;DHT22;13431;51.352;6.412;2022-08-04T09:45:07;46.60;44.50
25536;DHT22;13431;51.352;6.412;2022-08-04T09:47:56;43.10;48.80
25536;DHT22;13431;51.352;6.412;2022-08-04T09:50:41;44.40;47.50
25536;DHT22;13431;51.352;6.412;2022-08-04T09:56:40;39.70;53.00
25536;DHT22;13431;51.352;6.412;2022-08-04T10:01:27;41.60;52.00
25536;DHT22;13431;51.352;6.412;2022-08-04T10:04:03;43.20;50.70
25536;DHT22;13431;51.352;6.412;2022-08-04T10:06:44;42.80;49.50
25536;DHT22;13431;51.352;6.412;2022-08-04T10:15:02;45.80;46.00
25536;DHT22;13431;51.352;6.412;2022-08-04T10:17:59;43.30;47.70
25536;DHT22;13431;51.352;6.412;2022-08-04T10:23:56;40.20;53.60
25536;DHT22;13431;51.352;6.412;2022-08-04T10:26:54;40.10;54.00
25536;DHT22;13431;51.352;6.412;2022-08-04T10:29:35;41.80;50.00
25536;DHT22;13431;51.352;6.412;2022-08-04T10:32:08;43.10;50.00
25536;DHT22;13431;51.352;6.412;2022-08-04T10:37:27;39.80;52.60
25536;DHT22;13431;51.352;6.412;2022-08-04T10:40:35;38.10;54.10
25536;DHT22;13431;51.352;6.412;2022-08-04T10:46:05;35.90;58.80
25536;DHT22;13431;51.352;6.412;2022-08-04T10:52:02;35.10;62.50
25536;DHT22;13431;51.352;6.412;2022-08-04T10:54:57;35.30;62.90
25536;DHT22;13431;51.352;6.412;2022-08-04T11:00:04;34.70;65.40
25536;DHT22;13431;51.352;6.412;2022-08-04T11:07:40;33.80;69.80
25536;DHT22;13431;51.352;6.412;2022-08-04T11:10:08;33.70;71.10
25536;DHT22;13431;51.352;6.412;2022-08-04T11:12:37;33.90;74.80
25536;DHT22;13431;51.352;6.412;2022-08-04T11:15:20;34.40;74.10
25536;DHT22;13431;51.352;6.412;2022-08-04T11:17:55;34.80;72.50
25536;DHT22;13431;51.352;6.412;2022-08-04T11:20:57;34.90;73.00
25536;DHT22;13431;51.352;6.412;2022-08-04T11:23:25;34.60;72.00
25536;DHT22;13431;51.352;6.412;2022-08-04T11:26:12;34.00;70.30
25536;DHT22;13431;51.352;6.412;2022-08-04T11:31:42;32.80;74.50
25536;DHT22;13431;51.352;6.412;2022-08-04T11:34:20;32.40;77.00
25536;DHT22;13431;51.352;6.412;2022-08-04T11:37:22;31.80;82.50
25536;DHT22;13431;51.352;6.412;2022-08-04T11:40:01;31.30;88.00
25536;DHT22;13431;51.352;6.412;2022-08-04T11:42:36;30.90;90.70
25536;DHT22;13431;51.352;6.412;2022-08-04T11:45:14;30.80;91.70
25536;DHT22;13431;51.352;6.412;2022-08-04T11:48:10;30.70;93.30
25536;DHT22;13431;51.352;6.412;2022-08-04T11:50:39;30.60;94.70
25536;DHT22;13431;51.352;6.412;2022-08-04T11:53:17;30.60;96.60
25536;DHT22;13431;51.352;6.412;2022-08-04T11:55:49;30.50;98.30
25536;DHT22;13431;51.352;6.412;2022-08-04T11:58:36;30.60;99.90
25536;DHT22;13431;51.352;6.412;2022-08-04T12:09:38;30.00;99.90
25536;DHT22;13431;51.352;6.412;2022-08-04T12:12:23;30.20;99.90
25536;DHT22;13431;51.352;6.412;2022-08-04T12:15:06;30.20;99.90
25536;DHT22;13431;51.352;6.412;2022-08-04T12:17:53;30.40;99.90
25536;DHT22;13431;51.352;6.412;2022-08-04T12:20:26;30.70;99.90
25536;DHT22;13431;51.352;6.412;2022-08-04T12:23:16;31.00;99.90
25536;DHT22;13431;51.352;6.412;2022-08-04T12:25:53;31.30;99.90
25536;DHT22;13431;51.352;6.412;2022-08-04T12:28:28;31.50;99.90
25536;DHT22;13431;51.352;6.412;2022-08-04T12:31:26;31.50;99.90
25536;DHT22;13431;51.352;6.412;2022-08-04T12:39:50;31.70;99.60
25536;DHT22;13431;51.352;6.412;2022-08-04T12:45:26;31.20;99.90
25536;DHT22;13431;51.352;6.412;2022-08-04T12:47:57;31.10;99.90
25536;DHT22;13431;51.352;6.412;2022-08-04T12:50:25;31.00;99.90
25536;DHT22;13431;51.352;6.412;2022-08-04T12:52:55;30.90;99.90
25536;DHT22;13431;51.352;6.412;2022-08-04T12:55:32;30.70;99.90
25536;DHT22;13431;51.352;6.412;2022-08-04T12:58:03;30.80;99.90
25536;DHT22;13431;51.352;6.412;2022-08-04T13:00:38;30.90;99.90
25536;DHT22;13431;51.352;6.412;2022-08-04T13:03:10;31.20;99.90
25536;DHT22;13431;51.352;6.412;2022-08-04T13:05:39;31.40;99.90
25536;DHT22;13431;51.352;6.412;2022-08-04T13:08:09;31.40;99.40
25536;DHT22;13431;51.352;6.412;2022-08-04T13:10:40;31.30;99.70
25536;DHT22;13431;51.352;6.412;2022-08-04T13:13:15;31.30;99.90
25536;DHT22;13431;51.352;6.412;2022-08-04T13:15:44;31.10;99.90
25536;DHT22;13431;51.352;6.412;2022-08-04T13:18:24;31.10;99.90
25536;DHT22;13431;51.352;6.412;2022-08-04T13:21:13;31.10;99.90
25536;DHT22;13431;51.352;6.412;2022-08-04T13:24:01;31.10;99.20
25536;DHT22;13431;51.352;6.412;2022-08-04T13:26:57;31.20;99.90
25536;DHT22;13431;51.352;6.412;2022-08-04T13:29:40;31.30;99.30
25536;DHT22;13431;51.352;6.412;2022-08-04T13:32:29;31.30;99.90
25536;DHT22;13431;51.352;6.412;2022-08-04T13:34:59;31.30;99.40
25536;DHT22;13431;51.352;6.412;2022-08-04T13:37:33;31.60;99.40
25536;DHT22;13431;51.352;6.412;2022-08-04T13:40:04;32.00;99.20
25536;DHT22;13431;51.352;6.412;2022-08-04T13:42:33;32.10;98.80
25536;DHT22;13431;51.352;6.412;2022-08-04T13:45:03;32.10;98.40
25536;DHT22;13431;51.352;6.412;2022-08-04T13:47:34;32.20;99.10
25536;DHT22;13431;51.352;6.412;2022-08-04T13:50:19;32.40;98.80
25536;DHT22;13431;51.352;6.412;2022-08-04T13:52:51;32.20;97.90
25536;DHT22;13431;51.352;6.412;2022-08-04T13:57:55;31.60;98.90
25536;DHT22;13431;51.352;6.412;2022-08-04T14:00:25;31.50;99.40
25536;DHT22;13431;51.352;6.412;2022-08-04T14:03:06;31.50;99.50
25536;DHT22;13431;51.352;6.412;2022-08-04T14:06:31;31.60;98.80
25536;DHT22;13431;51.352;6.412;2022-08-04T14:11:38;31.80;98.30
25536;DHT22;13431;51.352;6.412;2022-08-04T14:14:28;31.70;98.80
25536;DHT22;13431;51.352;6.412;2022-08-04T14:19:27;31.80;98.10
25536;DHT22;13431;51.352;6.412;2022-08-04T14:22:02;31.60;97.90
25536;DHT22;13431;51.352;6.412;2022-08-04T14:24:30;31.50;98.40
25536;DHT22;13431;51.352;6.412;2022-08-04T14:27:00;31.40;99.00
25536;DHT22;13431;51.352;6.412;2022-08-04T14:29:36;31.20;97.90
25536;DHT22;13431;51.352;6.412;2022-08-04T14:32:05;31.00;98.90
25536;DHT22;13431;51.352;6.412;2022-08-04T14:34:43;30.80;98.90
25536;DHT22;13431;51.352;6.412;2022-08-04T14:37:16;30.70;99.30
25536;DHT22;13431;51.352;6.412;2022-08-04T14:39:52;30.60;99.70
25536;DHT22;13431;51.352;6.412;2022-08-04T14:42:45;30.40;99.90
25536;DHT22;13431;51.352;6.412;2022-08-04T14:45:42;30.00;99.90
25536;DHT22;13431;51.352;6.412;2022-08-04T14:48:21;29.80;99.90
25536;DHT22;13431;51.352;6.412;2022-08-04T14:50:49;29.40;99.90
25536;DHT22;13431;51.352;6.412;2022-08-04T14:55:49;29.00;99.90
25536;DHT22;13431;51.352;6.412;2022-08-04T14:58:22;28.80;99.90
25536;DHT22;13431;51.352;6.412;2022-08-04T15:01:09;28.60;99.90
25536;DHT22;13431;51.352;6.412;2022-08-04T15:03:45;28.50;99.90
25536;DHT22;13431;51.352;6.412;2022-08-04T15:06:27;28.40;99.90
25536;DHT22;13431;51.352;6.412;2022-08-04T15:08:58;28.30;99.90
25536;DHT22;13431;51.352;6.412;2022-08-04T15:11:27;28.30;99.90
25536;DHT22;13431;51.352;6.412;2022-08-04T15:13:56;28.20;99.90
25536;DHT22;13431;51.352;6.412;2022-08-04T15:16:26;28.20;99.90
25536;DHT22;13431;51.352;6.412;2022-08-04T15:18:54;28.30;99.90
25536;DHT22;13431;51.352;6.412;2022-08-04T15:21:25;28.30;99.90
25536;DHT22;13431;51.352;6.412;2022-08-04T15:23:56;28.40;99.90
25536;DHT22;13431;51.352;6.412;2022-08-04T15:26:34;28.40;99.90
25536;DHT22;13431;51.352;6.412;2022-08-04T15:29:16;28.40;99.90
25536;DHT22;13431;51.352;6.412;2022-08-04T15:31:45;28.30;99.90
25536;DHT22;13431;51.352;6.412;2022-08-04T15:34:48;28.40;99.90
25536;DHT22;13431;51.352;6.412;2022-08-04T15:37:32;28.30;99.90
25536;DHT22;13431;51.352;6.412;2022-08-04T15:40:08;28.20;99.90
25536;DHT22;13431;51.352;6.412;2022-08-04T15:42:45;28.10;99.90
25536;DHT22;13431;51.352;6.412;2022-08-04T15:45:17;27.90;99.90
25536;DHT22;13431;51.352;6.412;2022-08-04T15:50:33;27.90;99.90
25536;DHT22;13431;51.352;6.412;2022-08-04T15:53:03;28.10;99.90
25536;DHT22;13431;51.352;6.412;2022-08-04T15:55:41;28.20;99.90
25536;DHT22;13431;51.352;6.412;2022-08-04T15:58:11;28.20;99.90
25536;DHT22;13431;51.352;6.412;2022-08-04T16:21:51;27.70;99.90
25536;DHT22;13431;51.352;6.412;2022-08-04T16:26:59;27.50;99.90
25536;DHT22;13431;51.352;6.412;2022-08-04T16:29:31;27.40;99.90
25536;DHT22;13431;51.352;6.412;2022-08-04T16:34:32;27.00;99.90
25536;DHT22;13431;51.352;6.412;2022-08-04T16:37:28;26.90;99.90
25536;DHT22;13431;51.352;6.412;2022-08-04T16:43:05;26.60;99.90
25536;DHT22;13431;51.352;6.412;2022-08-04T16:45:49;26.60;99.90
25536;DHT22;13431;51.352;6.412;2022-08-04T16:48:19;26.60;99.90
25536;DHT22;13431;51.352;6.412;2022-08-04T16:50:59;26.40;99.90
25536;DHT22;13431;51.352;6.412;2022-08-04T16:53:42;26.40;99.90
25536;DHT22;13431;51.352;6.412;2022-08-04T16:56:27;26.30;99.90
25536;DHT22;13431;51.352;6.412;2022-08-04T16:58:56;26.40;99.90
25536;DHT22;13431;51.352;6.412;2022-08-04T17:01:23;26.40;99.90
25536;DHT22;13431;51.352;6.412;2022-08-04T17:04:01;26.60;99.90
25536;DHT22;13431;51.352;6.412;2022-08-04T17:06:38;26.60;99.90
25536;DHT22;13431;51.352;6.412;2022-08-04T17:09:14;26.60;99.90
25536;DHT22;13431;51.352;6.412;2022-08-04T17:11:43;26.60;99.90
25536;DHT22;13431;51.352;6.412;2022-08-04T17:14:11;26.70;99.90
25536;DHT22;13431;51.352;6.412;2022-08-04T17:16:42;26.60;99.90
25536;DHT22;13431;51.352;6.412;2022-08-04T17:19:10;26.50;99.90
25536;DHT22;13431;51.352;6.412;2022-08-04T17:22:00;26.50;99.90
25536;DHT22;13431;51.352;6.412;2022-08-04T17:24:36;26.50;99.90
25536;DHT22;13431;51.352;6.412;2022-08-04T17:27:05;26.40;99.90
25536;DHT22;13431;51.352;6.412;2022-08-04T17:29:53;26.30;99.90
25536;DHT22;13431;51.352;6.412;2022-08-04T17:32:20;26.20;99.90
25536;DHT22;13431;51.352;6.412;2022-08-04T17:34:51;26.10;99.90
25536;DHT22;13431;51.352;6.412;2022-08-04T17:37:21;26.10;99.90
25536;DHT22;13431;51.352;6.412;2022-08-04T17:40:14;25.90;99.90
25536;DHT22;13431;51.352;6.412;2022-08-04T17:43:04;25.90;99.90
25536;DHT22;13431;51.352;6.412;2022-08-04T17:46:14;25.80;99.90
25536;DHT22;13431;51.352;6.412;2022-08-04T17:51:46;25.70;99.90
25536;DHT22;13431;51.352;6.412;2022-08-04T17:54:35;25.60;99.90
25536;DHT22;13431;51.352;6.412;2022-08-04T17:57:20;25.40;99.90
25536;DHT22;13431;51.352;6.412;2022-08-04T17:59:56;25.40;99.90
25536;DHT22;13431;51.352;6.412;2022-08-04T18:02:28;25.40;99.90
25536;DHT22;13431;51.352;6.412;2022-08-04T18:05:02;25.30;99.90
25536;DHT22;13431;51.352;6.412;2022-08-04T18:07:49;25.30;99.90
25536;DHT22;13431;51.352;6.412;2022-08-04T18:10:41;25.20;99.90
25536;DHT22;13431;51.352;6.412;2022-08-04T18:13:26;25.10;99.90
25536;DHT22;13431;51.352;6.412;2022-08-04T18:16:02;25.00;99.90
25536;DHT22;13431;51.352;6.412;2022-08-04T18:18:30;25.00;99.90
25536;DHT22;13431;51.352;6.412;2022-08-04T18:20:57;24.90;99.90
25536;DHT22;13431;51.352;6.412;2022-08-04T18:23:47;24.90;99.90
25536;DHT22;13431;51.352;6.412;2022-08-04T18:26:34;24.80;99.90
25536;DHT22;13431;51.352;6.412;2022-08-04T18:29:04;24.80;99.90
25536;DHT22;13431;51.352;6.412;2022-08-04T18:31:52;24.70;99.90
25536;DHT22;13431;51.352;6.412;2022-08-04T18:34:20;24.70;99.90
25536;DHT22;13431;51.352;6.412;2022-08-04T18:36:50;24.60;99.90
25536;DHT22;13431;51.352;6.412;2022-08-04T18:39:26;24.50;99.90
25536;DHT22;13431;51.352;6.412;2022-08-04T18:42:15;24.50;99.90
25536;DHT22;13431;51.352;6.412;2022-08-04T18:44:44;24.50;99.90
25536;DHT22;13431;51.352;6.412;2022-08-04T18:47:22;24.50;99.90
25536;DHT22;13431;51.352;6.412;2022-08-04T18:49:55;24.40;99.90
25536;DHT22;13431;51.352;6.412;2022-08-04T18:52:43;24.30;99.90
25536;DHT22;13431;51.352;6.412;2022-08-04T18:55:13;24.30;99.90
25536;DHT22;13431;51.352;6.412;2022-08-04T18:58:01;24.20;99.90
25536;DHT22;13431;51.352;6.412;2022-08-04T19:00:38;24.10;99.90
25536;DHT22;13431;51.352;6.412;2022-08-04T19:03:12;24.10;99.90
25536;DHT22;13431;51.352;6.412;2022-08-04T19:05:42;24.00;99.90
25536;DHT22;13431;51.352;6.412;2022-08-04T19:08:14;23.90;99.90
25536;DHT22;13431;51.352;6.412;2022-08-04T19:11:03;23.70;99.90
25536;DHT22;13431;51.352;6.412;2022-08-04T19:13:51;23.70;99.90
25536;DHT22;13431;51.352;6.412;2022-08-04T19:16:27;23.50;99.90
25536;DHT22;13431;51.352;6.412;2022-08-04T19:18:56;23.50;99.90
25536;DHT22;13431;51.352;6.412;2022-08-04T19:21:24;23.40;99.90
25536;DHT22;13431;51.352;6.412;2022-08-04T19:24:11;23.30;99.90
25536;DHT22;13431;51.352;6.412;2022-08-04T19:27:03;23.30;99.90
25536;DHT22;13431;51.352;6.412;2022-08-04T19:29:35;23.30;99.90
25536;DHT22;13431;51.352;6.412;2022-08-04T19:32:10;23.20;99.90
25536;DHT22;13431;51.352;6.412;2022-08-04T19:34:45;23.10;99.90
25536;DHT22;13431;51.352;6.412;2022-08-04T19:37:16;23.00;99.90
25536;DHT22;13431;51.352;6.412;2022-08-04T19:40:05;22.90;99.90
25536;DHT22;13431;51.352;6.412;2022-08-04T19:42:34;22.80;99.90
25536;DHT22;13431;51.352;6.412;2022-08-04T19:45:01;22.70;99.90
25536;DHT22;13431;51.352;6.412;2022-08-04T19:47:29;22.70;99.90
25536;DHT22;13431;51.352;6.412;2022-08-04T19:50:17;22.70;99.90
25536;DHT22;13431;51.352;6.412;2022-08-04T19:52:44;22.60;99.90
25536;DHT22;13431;51.352;6.412;2022-08-04T19:55:20;22.50;99.90
25536;DHT22;13431;51.352;6.412;2022-08-04T19:57:49;22.50;99.90
25536;DHT22;13431;51.352;6.412;2022-08-04T20:00:20;22.50;99.90
25536;DHT22;13431;51.352;6.412;2022-08-04T20:03:08;22.50;99.90
25536;DHT22;13431;51.352;6.412;2022-08-04T20:05:39;22.70;99.90
25536;DHT22;13431;51.352;6.412;2022-08-04T20:08:28;22.90;99.90
25536;DHT22;13431;51.352;6.412;2022-08-04T20:10:56;23.00;99.90
25536;DHT22;13431;51.352;6.412;2022-08-04T20:13:24;23.00;99.90
25536;DHT22;13431;51.352;6.412;2022-08-04T20:16:05;23.10;99.90
25536;DHT22;13431;51.352;6.412;2022-08-04T20:18:53;23.10;99.90
25536;DHT22;13431;51.352;6.412;2022-08-04T20:21:29;23.10;99.90
25536;DHT22;13431;51.352;6.412;2022-08-04T20:24:17;23.10;99.90
25536;DHT22;13431;51.352;6.412;2022-08-04T20:27:04;23.10;99.90
25536;DHT22;13431;51.352;6.412;2022-08-04T20:29:35;23.10;99.90
25536;DHT22;13431;51.352;6.412;2022-08-04T20:32:09;23.10;99.90
25536;DHT22;13431;51.352;6.412;2022-08-04T20:34:37;23.10;99.90
25536;DHT22;13431;51.352;6.412;2022-08-04T20:37:07;23.10;99.90
25536;DHT22;13431;51.352;6.412;2022-08-04T20:39:36;23.00;99.90
25536;DHT22;13431;51.352;6.412;2022-08-04T20:42:05;23.00;99.90
25536;DHT22;13431;51.352;6.412;2022-08-04T20:44:37;22.90;99.90
25536;DHT22;13431;51.352;6.412;2022-08-04T20:47:13;22.90;99.90
25536;DHT22;13431;51.352;6.412;2022-08-04T20:49:40;22.80;99.90
25536;DHT22;13431;51.352;6.412;2022-08-04T20:52:09;22.80;99.90
25536;DHT22;13431;51.352;6.412;2022-08-04T20:54:46;22.80;99.90
25536;DHT22;13431;51.352;6.412;2022-08-04T20:57:15;22.80;99.90
25536;DHT22;13431;51.352;6.412;2022-08-04T20:59:43;22.80;99.90
25536;DHT22;13431;51.352;6.412;2022-08-04T21:02:26;22.80;99.90